sensor_id;sensor_type;location;lat;lon;timestamp;P1;durP1;ratioP1;P2;durP2;ratioP2
30818;SDS011;17546;42.674;23.284;2022-12-15T00:02:19;30.98;;;17.73;;
30818;SDS011;17546;42.674;23.284;2022-12-15T00:05:03;37.03;;;18.88;;
30818;SDS011;17546;42.674;23.284;2022-12-15T00:07:48;35.45;;;18.77;;
30818;SDS011;17546;42.674;23.284;2022-12-15T00:10:32;32.80;;;18.75;;
30818;SDS011;17546;42.674;23.284;2022-12-15T00:13:16;32.55;;;18.98;;
30818;SDS011;17546;42.674;23.284;2022-12-15T00:16:00;38.17;;;19.70;;
30818;SDS011;17546;42.674;23.284;2022-12-15T00:18:44;35.95;;;19.98;;
30818;SDS011;17546;42.674;23.284;2022-12-15T00:21:28;37.17;;;20.55;;
30818;SDS011;17546;42.674;23.284;2022-12-15T00:24:12;34.80;;;20.83;;
30818;SDS011;17546;42.674;23.284;2022-12-15T00:26:56;41.88;;;21.60;;
30818;SDS011;17546;42.674;23.284;2022-12-15T00:29:40;38.45;;;20.98;;
30818;SDS011;17546;42.674;23.284;2022-12-15T00:32:24;38.95;;;22.17;;
30818;SDS011;17546;42.674;23.284;2022-12-15T00:35:08;37.50;;;21.70;;
30818;SDS011;17546;42.674;23.284;2022-12-15T00:37:52;35.13;;;20.63;;
30818;SDS011;17546;42.674;23.284;2022-12-15T00:40:36;37.40;;;21.15;;
30818;SDS011;17546;42.674;23.284;2022-12-15T00:43:01;36.22;;;22.33;;
30818;SDS011;17546;42.674;23.284;2022-12-15T00:45:27;38.00;;;21.52;;
30818;SDS011;17546;42.674;23.284;2022-12-15T00:48:12;37.40;;;21.85;;
30818;SDS011;17546;42.674;23.284;2022-12-15T00:50:38;36.90;;;21.10;;
30818;SDS011;17546;42.674;23.284;2022-12-15T00:53:22;35.30;;;20.80;;
30818;SDS011;17546;42.674;23.284;2022-12-15T00:56:07;36.97;;;20.40;;
30818;SDS011;17546;42.674;23.284;2022-12-15T00:58:52;36.22;;;20.92;;
30818;SDS011;17546;42.674;23.284;2022-12-15T01:01:37;37.13;;;20.20;;
30818;SDS011;17546;42.674;23.284;2022-12-15T01:04:21;35.33;;;21.13;;
30818;SDS011;17546;42.674;23.284;2022-12-15T01:07:05;41.42;;;22.05;;
30818;SDS011;17546;42.674;23.284;2022-12-15T01:09:49;37.35;;;21.48;;
30818;SDS011;17546;42.674;23.284;2022-12-15T01:12:33;36.95;;;21.27;;
30818;SDS011;17546;42.674;23.284;2022-12-15T01:15:17;42.33;;;22.55;;
30818;SDS011;17546;42.674;23.284;2022-12-15T01:18:02;41.65;;;22.17;;
30818;SDS011;17546;42.674;23.284;2022-12-15T01:20:53;44.80;;;23.00;;
30818;SDS011;17546;42.674;23.284;2022-12-15T01:23:20;39.58;;;22.13;;
30818;SDS011;17546;42.674;23.284;2022-12-15T01:25:45;42.53;;;22.63;;
30818;SDS011;17546;42.674;23.284;2022-12-15T01:28:10;38.78;;;22.10;;
30818;SDS011;17546;42.674;23.284;2022-12-15T01:30:36;41.50;;;21.98;;
30818;SDS011;17546;42.674;23.284;2022-12-15T01:33:01;36.30;;;20.75;;
30818;SDS011;17546;42.674;23.284;2022-12-15T01:35:27;36.20;;;20.83;;
30818;SDS011;17546;42.674;23.284;2022-12-15T01:37:52;34.17;;;20.67;;
30818;SDS011;17546;42.674;23.284;2022-12-15T01:40:18;34.13;;;20.30;;
30818;SDS011;17546;42.674;23.284;2022-12-15T01:43:08;35.92;;;18.92;;
30818;SDS011;17546;42.674;23.284;2022-12-15T01:45:53;27.67;;;17.55;;
30818;SDS011;17546;42.674;23.284;2022-12-15T01:48:39;31.75;;;18.75;;
30818;SDS011;17546;42.674;23.284;2022-12-15T01:51:25;33.47;;;18.63;;
30818;SDS011;17546;42.674;23.284;2022-12-15T01:54:04;31.00;;;18.02;;
30818;SDS011;17546;42.674;23.284;2022-12-15T01:56:37;30.92;;;18.88;;
30818;SDS011;17546;42.674;23.284;2022-12-15T01:59:08;29.83;;;17.90;;
30818;SDS011;17546;42.674;23.284;2022-12-15T02:01:39;26.02;;;15.68;;
30818;SDS011;17546;42.674;23.284;2022-12-15T02:04:05;24.17;;;13.30;;
30818;SDS011;17546;42.674;23.284;2022-12-15T02:06:31;23.88;;;13.38;;
30818;SDS011;17546;42.674;23.284;2022-12-15T02:08:57;22.67;;;13.18;;
30818;SDS011;17546;42.674;23.284;2022-12-15T02:14:03;21.75;;;12.60;;
30818;SDS011;17546;42.674;23.284;2022-12-15T02:19:32;18.58;;;10.93;;
30818;SDS011;17546;42.674;23.284;2022-12-15T02:22:24;18.90;;;11.10;;
30818;SDS011;17546;42.674;23.284;2022-12-15T02:24:59;17.38;;;10.38;;
30818;SDS011;17546;42.674;23.284;2022-12-15T02:33:36;11.70;;;7.78;;
30818;SDS011;17546;42.674;23.284;2022-12-15T02:36:14;15.23;;;8.73;;
30818;SDS011;17546;42.674;23.284;2022-12-15T02:38:45;16.00;;;9.35;;
30818;SDS011;17546;42.674;23.284;2022-12-15T02:44:00;14.85;;;9.93;;
30818;SDS011;17546;42.674;23.284;2022-12-15T02:49:48;15.32;;;9.50;;
30818;SDS011;17546;42.674;23.284;2022-12-15T02:58:19;21.15;;;11.90;;
30818;SDS011;17546;42.674;23.284;2022-12-15T03:00:51;24.02;;;12.63;;
30818;SDS011;17546;42.674;23.284;2022-12-15T03:03:22;21.33;;;13.40;;
30818;SDS011;17546;42.674;23.284;2022-12-15T03:05:49;22.00;;;13.23;;
30818;SDS011;17546;42.674;23.284;2022-12-15T03:08:19;23.92;;;13.05;;
30818;SDS011;17546;42.674;23.284;2022-12-15T03:10:45;22.33;;;13.20;;
30818;SDS011;17546;42.674;23.284;2022-12-15T03:13:13;21.30;;;13.25;;
30818;SDS011;17546;42.674;23.284;2022-12-15T03:15:39;21.33;;;12.13;;
30818;SDS011;17546;42.674;23.284;2022-12-15T03:18:04;20.35;;;12.07;;
30818;SDS011;17546;42.674;23.284;2022-12-15T03:20:29;19.02;;;11.80;;
30818;SDS011;17546;42.674;23.284;2022-12-15T03:22:55;21.15;;;12.25;;
30818;SDS011;17546;42.674;23.284;2022-12-15T03:25:20;19.75;;;11.70;;
30818;SDS011;17546;42.674;23.284;2022-12-15T03:27:46;20.30;;;12.38;;
30818;SDS011;17546;42.674;23.284;2022-12-15T03:30:11;20.20;;;11.45;;
30818;SDS011;17546;42.674;23.284;2022-12-15T03:32:37;20.13;;;12.40;;
30818;SDS011;17546;42.674;23.284;2022-12-15T03:35:03;22.42;;;13.05;;
30818;SDS011;17546;42.674;23.284;2022-12-15T03:37:28;22.40;;;12.50;;
30818;SDS011;17546;42.674;23.284;2022-12-15T03:39:54;28.92;;;16.35;;
30818;SDS011;17546;42.674;23.284;2022-12-15T03:42:20;31.40;;;16.50;;
30818;SDS011;17546;42.674;23.284;2022-12-15T03:45:05;27.55;;;15.85;;
30818;SDS011;17546;42.674;23.284;2022-12-15T03:47:31;29.42;;;16.40;;
30818;SDS011;17546;42.674;23.284;2022-12-15T03:49:56;30.58;;;17.48;;
30818;SDS011;17546;42.674;23.284;2022-12-15T03:52:22;32.17;;;18.63;;
30818;SDS011;17546;42.674;23.284;2022-12-15T03:54:47;33.78;;;17.63;;
30818;SDS011;17546;42.674;23.284;2022-12-15T03:57:13;31.35;;;18.00;;
30818;SDS011;17546;42.674;23.284;2022-12-15T03:59:38;30.42;;;16.13;;
30818;SDS011;17546;42.674;23.284;2022-12-15T04:02:04;35.22;;;17.50;;
30818;SDS011;17546;42.674;23.284;2022-12-15T04:04:29;33.20;;;18.00;;
30818;SDS011;17546;42.674;23.284;2022-12-15T04:06:54;33.60;;;18.15;;
30818;SDS011;17546;42.674;23.284;2022-12-15T04:09:20;33.10;;;18.17;;
30818;SDS011;17546;42.674;23.284;2022-12-15T04:11:45;34.58;;;18.75;;
30818;SDS011;17546;42.674;23.284;2022-12-15T04:14:11;36.22;;;18.38;;
30818;SDS011;17546;42.674;23.284;2022-12-15T04:16:36;31.65;;;17.65;;
30818;SDS011;17546;42.674;23.284;2022-12-15T04:19:02;32.65;;;17.40;;
30818;SDS011;17546;42.674;23.284;2022-12-15T04:21:46;30.00;;;17.02;;
30818;SDS011;17546;42.674;23.284;2022-12-15T04:24:11;31.73;;;16.77;;
30818;SDS011;17546;42.674;23.284;2022-12-15T04:26:55;30.58;;;16.95;;
30818;SDS011;17546;42.674;23.284;2022-12-15T04:29:39;29.75;;;16.77;;
30818;SDS011;17546;42.674;23.284;2022-12-15T04:32:23;31.50;;;17.60;;
30818;SDS011;17546;42.674;23.284;2022-12-15T04:35:07;36.63;;;18.58;;
30818;SDS011;17546;42.674;23.284;2022-12-15T04:37:53;31.85;;;17.30;;
30818;SDS011;17546;42.674;23.284;2022-12-15T04:40:38;29.77;;;17.07;;
30818;SDS011;17546;42.674;23.284;2022-12-15T04:43:22;30.85;;;17.50;;
30818;SDS011;17546;42.674;23.284;2022-12-15T04:46:06;31.77;;;17.33;;
30818;SDS011;17546;42.674;23.284;2022-12-15T04:48:50;26.42;;;16.23;;
30818;SDS011;17546;42.674;23.284;2022-12-15T04:51:34;26.60;;;14.10;;
30818;SDS011;17546;42.674;23.284;2022-12-15T04:54:18;23.92;;;14.43;;
30818;SDS011;17546;42.674;23.284;2022-12-15T04:57:02;25.88;;;15.43;;
30818;SDS011;17546;42.674;23.284;2022-12-15T04:59:46;27.13;;;15.23;;
30818;SDS011;17546;42.674;23.284;2022-12-15T05:02:30;26.73;;;13.73;;
30818;SDS011;17546;42.674;23.284;2022-12-15T05:05:14;20.92;;;13.15;;
30818;SDS011;17546;42.674;23.284;2022-12-15T05:07:58;22.98;;;13.60;;
30818;SDS011;17546;42.674;23.284;2022-12-15T05:10:42;24.67;;;14.43;;
30818;SDS011;17546;42.674;23.284;2022-12-15T05:13:25;32.78;;;16.92;;
30818;SDS011;17546;42.674;23.284;2022-12-15T05:16:09;33.47;;;18.13;;
30818;SDS011;17546;42.674;23.284;2022-12-15T05:18:53;31.10;;;18.45;;
30818;SDS011;17546;42.674;23.284;2022-12-15T05:21:37;33.28;;;19.10;;
30818;SDS011;17546;42.674;23.284;2022-12-15T05:24:21;37.28;;;19.50;;
30818;SDS011;17546;42.674;23.284;2022-12-15T05:27:05;35.22;;;19.23;;
30818;SDS011;17546;42.674;23.284;2022-12-15T05:29:57;36.95;;;19.33;;
30818;SDS011;17546;42.674;23.284;2022-12-15T05:32:41;34.13;;;19.15;;
30818;SDS011;17546;42.674;23.284;2022-12-15T05:35:06;35.50;;;18.42;;
30818;SDS011;17546;42.674;23.284;2022-12-15T05:37:32;29.17;;;17.10;;
30818;SDS011;17546;42.674;23.284;2022-12-15T05:39:57;29.77;;;16.75;;
30818;SDS011;17546;42.674;23.284;2022-12-15T05:42:23;31.95;;;17.58;;
30818;SDS011;17546;42.674;23.284;2022-12-15T05:44:48;31.08;;;17.15;;
30818;SDS011;17546;42.674;23.284;2022-12-15T05:47:21;32.17;;;17.27;;
30818;SDS011;17546;42.674;23.284;2022-12-15T05:49:46;29.85;;;16.45;;
30818;SDS011;17546;42.674;23.284;2022-12-15T05:52:13;29.77;;;16.88;;
30818;SDS011;17546;42.674;23.284;2022-12-15T05:54:38;29.85;;;15.48;;
30818;SDS011;17546;42.674;23.284;2022-12-15T05:57:03;32.10;;;15.45;;
30818;SDS011;17546;42.674;23.284;2022-12-15T05:59:29;25.63;;;13.98;;
30818;SDS011;17546;42.674;23.284;2022-12-15T06:01:54;27.45;;;15.43;;
30818;SDS011;17546;42.674;23.284;2022-12-15T06:04:20;25.15;;;14.65;;
30818;SDS011;17546;42.674;23.284;2022-12-15T06:06:45;26.00;;;15.27;;
30818;SDS011;17546;42.674;23.284;2022-12-15T06:09:10;25.95;;;14.75;;
30818;SDS011;17546;42.674;23.284;2022-12-15T06:11:36;26.23;;;14.18;;
30818;SDS011;17546;42.674;23.284;2022-12-15T06:14:01;26.17;;;14.77;;
30818;SDS011;17546;42.674;23.284;2022-12-15T06:16:27;24.38;;;14.50;;
30818;SDS011;17546;42.674;23.284;2022-12-15T06:18:54;25.80;;;14.45;;
30818;SDS011;17546;42.674;23.284;2022-12-15T06:21:23;23.65;;;13.88;;
30818;SDS011;17546;42.674;23.284;2022-12-15T06:23:54;31.88;;;14.80;;
30818;SDS011;17546;42.674;23.284;2022-12-15T06:26:21;24.08;;;14.25;;
30818;SDS011;17546;42.674;23.284;2022-12-15T06:28:53;22.33;;;13.32;;
30818;SDS011;17546;42.674;23.284;2022-12-15T06:31:20;28.05;;;13.85;;
30818;SDS011;17546;42.674;23.284;2022-12-15T06:33:49;28.77;;;14.70;;
30818;SDS011;17546;42.674;23.284;2022-12-15T06:36:17;29.13;;;17.17;;
30818;SDS011;17546;42.674;23.284;2022-12-15T06:38:43;22.38;;;14.07;;
30818;SDS011;17546;42.674;23.284;2022-12-15T06:41:10;22.08;;;13.55;;
30818;SDS011;17546;42.674;23.284;2022-12-15T06:43:37;25.92;;;15.52;;
30818;SDS011;17546;42.674;23.284;2022-12-15T06:46:03;24.73;;;14.70;;
30818;SDS011;17546;42.674;23.284;2022-12-15T06:48:29;25.58;;;14.95;;
30818;SDS011;17546;42.674;23.284;2022-12-15T06:50:55;25.48;;;14.65;;
30818;SDS011;17546;42.674;23.284;2022-12-15T06:53:22;29.52;;;15.40;;
30818;SDS011;17546;42.674;23.284;2022-12-15T06:55:48;24.23;;;13.93;;
30818;SDS011;17546;42.674;23.284;2022-12-15T06:58:15;27.27;;;14.43;;
30818;SDS011;17546;42.674;23.284;2022-12-15T07:00:41;22.38;;;13.65;;
30818;SDS011;17546;42.674;23.284;2022-12-15T07:03:12;24.02;;;13.45;;
30818;SDS011;17546;42.674;23.284;2022-12-15T07:05:40;23.63;;;13.68;;
30818;SDS011;17546;42.674;23.284;2022-12-15T07:08:05;21.42;;;13.70;;
30818;SDS011;17546;42.674;23.284;2022-12-15T07:10:30;23.20;;;13.85;;
30818;SDS011;17546;42.674;23.284;2022-12-15T07:12:56;22.70;;;13.68;;
30818;SDS011;17546;42.674;23.284;2022-12-15T07:15:22;25.10;;;14.35;;
30818;SDS011;17546;42.674;23.284;2022-12-15T07:17:48;23.65;;;13.82;;
30818;SDS011;17546;42.674;23.284;2022-12-15T07:20:13;26.30;;;14.30;;
30818;SDS011;17546;42.674;23.284;2022-12-15T07:22:39;29.58;;;14.25;;
30818;SDS011;17546;42.674;23.284;2022-12-15T07:25:04;24.17;;;14.23;;
30818;SDS011;17546;42.674;23.284;2022-12-15T07:27:30;22.33;;;13.85;;
30818;SDS011;17546;42.674;23.284;2022-12-15T07:29:56;23.08;;;13.30;;
30818;SDS011;17546;42.674;23.284;2022-12-15T07:32:21;21.10;;;13.25;;
30818;SDS011;17546;42.674;23.284;2022-12-15T07:34:46;27.75;;;15.50;;
30818;SDS011;17546;42.674;23.284;2022-12-15T07:37:12;27.50;;;14.85;;
30818;SDS011;17546;42.674;23.284;2022-12-15T07:39:38;32.42;;;17.40;;
30818;SDS011;17546;42.674;23.284;2022-12-15T07:42:03;32.58;;;19.33;;
30818;SDS011;17546;42.674;23.284;2022-12-15T07:44:29;31.20;;;18.98;;
30818;SDS011;17546;42.674;23.284;2022-12-15T07:46:55;30.85;;;17.92;;
30818;SDS011;17546;42.674;23.284;2022-12-15T07:49:21;29.10;;;16.52;;
30818;SDS011;17546;42.674;23.284;2022-12-15T07:51:47;30.20;;;17.05;;
30818;SDS011;17546;42.674;23.284;2022-12-15T07:54:22;33.30;;;16.10;;
30818;SDS011;17546;42.674;23.284;2022-12-15T07:56:48;29.38;;;16.50;;
30818;SDS011;17546;42.674;23.284;2022-12-15T07:59:13;29.00;;;16.17;;
30818;SDS011;17546;42.674;23.284;2022-12-15T08:01:39;31.50;;;16.90;;
30818;SDS011;17546;42.674;23.284;2022-12-15T08:04:04;31.45;;;16.83;;
30818;SDS011;17546;42.674;23.284;2022-12-15T08:06:30;30.52;;;17.38;;
30818;SDS011;17546;42.674;23.284;2022-12-15T08:08:56;30.08;;;16.85;;
30818;SDS011;17546;42.674;23.284;2022-12-15T08:11:21;30.95;;;16.88;;
30818;SDS011;17546;42.674;23.284;2022-12-15T08:13:48;33.50;;;17.55;;
30818;SDS011;17546;42.674;23.284;2022-12-15T08:16:14;30.92;;;17.00;;
30818;SDS011;17546;42.674;23.284;2022-12-15T08:18:40;29.08;;;17.58;;
30818;SDS011;17546;42.674;23.284;2022-12-15T08:21:06;27.88;;;16.63;;
30818;SDS011;17546;42.674;23.284;2022-12-15T08:23:33;28.38;;;16.02;;
30818;SDS011;17546;42.674;23.284;2022-12-15T08:26:09;25.15;;;15.63;;
30818;SDS011;17546;42.674;23.284;2022-12-15T08:28:37;29.35;;;16.30;;
30818;SDS011;17546;42.674;23.284;2022-12-15T08:31:04;29.63;;;16.50;;
30818;SDS011;17546;42.674;23.284;2022-12-15T08:33:31;29.52;;;16.60;;
30818;SDS011;17546;42.674;23.284;2022-12-15T08:35:57;28.20;;;16.45;;
30818;SDS011;17546;42.674;23.284;2022-12-15T08:38:28;28.10;;;16.30;;
30818;SDS011;17546;42.674;23.284;2022-12-15T08:40:54;26.10;;;16.10;;
30818;SDS011;17546;42.674;23.284;2022-12-15T08:43:20;31.48;;;16.80;;
30818;SDS011;17546;42.674;23.284;2022-12-15T08:45:46;30.77;;;17.30;;
30818;SDS011;17546;42.674;23.284;2022-12-15T08:48:11;25.40;;;15.77;;
30818;SDS011;17546;42.674;23.284;2022-12-15T08:50:37;26.10;;;16.55;;
30818;SDS011;17546;42.674;23.284;2022-12-15T08:53:02;27.20;;;15.82;;
30818;SDS011;17546;42.674;23.284;2022-12-15T08:55:27;29.83;;;16.25;;
30818;SDS011;17546;42.674;23.284;2022-12-15T08:57:53;25.30;;;15.90;;
30818;SDS011;17546;42.674;23.284;2022-12-15T09:00:18;27.42;;;15.73;;
30818;SDS011;17546;42.674;23.284;2022-12-15T09:02:44;29.45;;;15.15;;
30818;SDS011;17546;42.674;23.284;2022-12-15T09:05:09;29.02;;;16.23;;
30818;SDS011;17546;42.674;23.284;2022-12-15T09:07:34;29.83;;;15.95;;
30818;SDS011;17546;42.674;23.284;2022-12-15T09:10:00;28.67;;;16.67;;
30818;SDS011;17546;42.674;23.284;2022-12-15T09:12:26;26.13;;;16.50;;
30818;SDS011;17546;42.674;23.284;2022-12-15T09:14:52;33.47;;;17.15;;
30818;SDS011;17546;42.674;23.284;2022-12-15T09:17:21;29.30;;;17.90;;
30818;SDS011;17546;42.674;23.284;2022-12-15T09:19:47;29.35;;;17.25;;
30818;SDS011;17546;42.674;23.284;2022-12-15T09:22:12;31.30;;;18.15;;
30818;SDS011;17546;42.674;23.284;2022-12-15T09:24:37;34.65;;;19.13;;
30818;SDS011;17546;42.674;23.284;2022-12-15T09:27:03;33.90;;;19.23;;
30818;SDS011;17546;42.674;23.284;2022-12-15T09:29:28;40.55;;;21.17;;
30818;SDS011;17546;42.674;23.284;2022-12-15T09:31:54;43.40;;;21.83;;
30818;SDS011;17546;42.674;23.284;2022-12-15T09:34:19;43.80;;;22.45;;
30818;SDS011;17546;42.674;23.284;2022-12-15T09:36:44;43.58;;;22.40;;
30818;SDS011;17546;42.674;23.284;2022-12-15T09:39:10;43.38;;;22.23;;
30818;SDS011;17546;42.674;23.284;2022-12-15T09:41:36;48.35;;;24.40;;
30818;SDS011;17546;42.674;23.284;2022-12-15T09:49:17;39.85;;;22.13;;
30818;SDS011;17546;42.674;23.284;2022-12-15T09:52:03;37.65;;;18.73;;
30818;SDS011;17546;42.674;23.284;2022-12-15T09:54:36;32.63;;;16.30;;
30818;SDS011;17546;42.674;23.284;2022-12-15T09:57:04;29.92;;;16.63;;
30818;SDS011;17546;42.674;23.284;2022-12-15T10:08:11;29.63;;;16.38;;
30818;SDS011;17546;42.674;23.284;2022-12-15T10:10:51;28.35;;;15.90;;
30818;SDS011;17546;42.674;23.284;2022-12-15T10:15:56;34.25;;;17.92;;
30818;SDS011;17546;42.674;23.284;2022-12-15T10:18:37;39.58;;;18.80;;
30818;SDS011;17546;42.674;23.284;2022-12-15T10:21:10;38.47;;;19.50;;
30818;SDS011;17546;42.674;23.284;2022-12-15T10:23:39;43.92;;;21.17;;
30818;SDS011;17546;42.674;23.284;2022-12-15T10:26:17;39.67;;;21.35;;
30818;SDS011;17546;42.674;23.284;2022-12-15T10:31:25;40.97;;;22.40;;
30818;SDS011;17546;42.674;23.284;2022-12-15T10:34:09;39.05;;;21.30;;
30818;SDS011;17546;42.674;23.284;2022-12-15T10:36:43;36.47;;;21.58;;
30818;SDS011;17546;42.674;23.284;2022-12-15T10:39:15;52.83;;;26.63;;
30818;SDS011;17546;42.674;23.284;2022-12-15T10:41:44;48.75;;;28.42;;
30818;SDS011;17546;42.674;23.284;2022-12-15T10:44:44;57.67;;;32.85;;
30818;SDS011;17546;42.674;23.284;2022-12-15T10:47:36;62.58;;;34.83;;
30818;SDS011;17546;42.674;23.284;2022-12-15T10:50:14;63.83;;;36.05;;
30818;SDS011;17546;42.674;23.284;2022-12-15T10:52:45;70.65;;;37.75;;
30818;SDS011;17546;42.674;23.284;2022-12-15T10:55:27;71.95;;;37.97;;
30818;SDS011;17546;42.674;23.284;2022-12-15T10:58:00;75.65;;;36.83;;
30818;SDS011;17546;42.674;23.284;2022-12-15T11:00:31;66.13;;;36.92;;
30818;SDS011;17546;42.674;23.284;2022-12-15T11:02:57;50.55;;;29.23;;
30818;SDS011;17546;42.674;23.284;2022-12-15T11:05:24;47.97;;;26.52;;
30818;SDS011;17546;42.674;23.284;2022-12-15T11:07:54;54.78;;;29.77;;
30818;SDS011;17546;42.674;23.284;2022-12-15T11:10:37;58.70;;;29.75;;
30818;SDS011;17546;42.674;23.284;2022-12-15T11:13:33;55.08;;;28.13;;
30818;SDS011;17546;42.674;23.284;2022-12-15T11:15:58;49.67;;;28.20;;
30818;SDS011;17546;42.674;23.284;2022-12-15T11:18:39;54.40;;;28.27;;
30818;SDS011;17546;42.674;23.284;2022-12-15T11:21:26;48.78;;;27.88;;
30818;SDS011;17546;42.674;23.284;2022-12-15T11:24:10;54.42;;;29.13;;
30818;SDS011;17546;42.674;23.284;2022-12-15T11:26:57;55.35;;;29.50;;
30818;SDS011;17546;42.674;23.284;2022-12-15T11:32:21;54.75;;;30.05;;
30818;SDS011;17546;42.674;23.284;2022-12-15T11:34:50;75.88;;;39.83;;
30818;SDS011;17546;42.674;23.284;2022-12-15T11:40:16;82.40;;;40.53;;
30818;SDS011;17546;42.674;23.284;2022-12-15T11:45:35;72.90;;;39.88;;
30818;SDS011;17546;42.674;23.284;2022-12-15T11:48:20;69.10;;;37.55;;
30818;SDS011;17546;42.674;23.284;2022-12-15T11:53:59;70.18;;;40.00;;
30818;SDS011;17546;42.674;23.284;2022-12-15T11:56:31;72.53;;;39.97;;
30818;SDS011;17546;42.674;23.284;2022-12-15T11:59:22;77.88;;;41.28;;
30818;SDS011;17546;42.674;23.284;2022-12-15T12:01:56;77.18;;;38.75;;
30818;SDS011;17546;42.674;23.284;2022-12-15T12:07:43;70.53;;;38.60;;
30818;SDS011;17546;42.674;23.284;2022-12-15T12:13:19;67.88;;;38.05;;
30818;SDS011;17546;42.674;23.284;2022-12-15T12:18:47;68.72;;;38.10;;
30818;SDS011;17546;42.674;23.284;2022-12-15T12:21:22;78.80;;;45.10;;
30818;SDS011;17546;42.674;23.284;2022-12-15T12:23:59;78.63;;;42.47;;
30818;SDS011;17546;42.674;23.284;2022-12-15T12:26:37;72.70;;;36.63;;
30818;SDS011;17546;42.674;23.284;2022-12-15T12:29:13;73.53;;;37.78;;
30818;SDS011;17546;42.674;23.284;2022-12-15T12:32:26;75.18;;;37.47;;
30818;SDS011;17546;42.674;23.284;2022-12-15T12:37:40;76.80;;;39.03;;
30818;SDS011;17546;42.674;23.284;2022-12-15T12:40:16;72.85;;;38.45;;
30818;SDS011;17546;42.674;23.284;2022-12-15T12:42:57;75.20;;;39.80;;
30818;SDS011;17546;42.674;23.284;2022-12-15T12:45:28;74.70;;;36.70;;
30818;SDS011;17546;42.674;23.284;2022-12-15T12:48:36;87.78;;;42.05;;
30818;SDS011;17546;42.674;23.284;2022-12-15T12:53:51;74.30;;;39.35;;
30818;SDS011;17546;42.674;23.284;2022-12-15T13:02:21;69.65;;;36.15;;
30818;SDS011;17546;42.674;23.284;2022-12-15T13:04:40;69.10;;;37.03;;
30818;SDS011;17546;42.674;23.284;2022-12-15T13:10:11;69.80;;;36.72;;
30818;SDS011;17546;42.674;23.284;2022-12-15T13:12:54;67.50;;;35.85;;
30818;SDS011;17546;42.674;23.284;2022-12-15T13:20:36;69.43;;;38.58;;
30818;SDS011;17546;42.674;23.284;2022-12-15T13:23:16;67.45;;;35.90;;
30818;SDS011;17546;42.674;23.284;2022-12-15T13:41:43;61.43;;;33.53;;
30818;SDS011;17546;42.674;23.284;2022-12-15T13:44:24;62.35;;;32.40;;
30818;SDS011;17546;42.674;23.284;2022-12-15T13:49:30;66.53;;;35.70;;
30818;SDS011;17546;42.674;23.284;2022-12-15T13:52:00;84.32;;;46.70;;
30818;SDS011;17546;42.674;23.284;2022-12-15T13:54:36;106.30;;;57.80;;
30818;SDS011;17546;42.674;23.284;2022-12-15T13:59:50;147.40;;;78.63;;
30818;SDS011;17546;42.674;23.284;2022-12-15T14:02:27;153.70;;;79.43;;
30818;SDS011;17546;42.674;23.284;2022-12-15T14:05:12;152.00;;;80.63;;
30818;SDS011;17546;42.674;23.284;2022-12-15T14:15:32;119.93;;;63.47;;
30818;SDS011;17546;42.674;23.284;2022-12-15T14:17:59;118.47;;;60.33;;
30818;SDS011;17546;42.674;23.284;2022-12-15T14:20:37;126.68;;;63.45;;
30818;SDS011;17546;42.674;23.284;2022-12-15T14:23:20;119.97;;;59.40;;
30818;SDS011;17546;42.674;23.284;2022-12-15T14:26:07;116.55;;;56.95;;
30818;SDS011;17546;42.674;23.284;2022-12-15T14:28:36;101.90;;;51.53;;
30818;SDS011;17546;42.674;23.284;2022-12-15T14:31:06;111.40;;;53.33;;
30818;SDS011;17546;42.674;23.284;2022-12-15T14:33:35;100.22;;;52.72;;
30818;SDS011;17546;42.674;23.284;2022-12-15T14:36:05;99.50;;;52.75;;
30818;SDS011;17546;42.674;23.284;2022-12-15T14:41:17;108.55;;;52.30;;
30818;SDS011;17546;42.674;23.284;2022-12-15T14:43:46;102.18;;;52.85;;
30818;SDS011;17546;42.674;23.284;2022-12-15T14:48:48;108.15;;;55.17;;
30818;SDS011;17546;42.674;23.284;2022-12-15T14:51:17;104.38;;;55.63;;
30818;SDS011;17546;42.674;23.284;2022-12-15T14:53:45;110.90;;;55.67;;
30818;SDS011;17546;42.674;23.284;2022-12-15T14:58:39;113.78;;;57.00;;
30818;SDS011;17546;42.674;23.284;2022-12-15T15:01:20;108.35;;;56.47;;
30818;SDS011;17546;42.674;23.284;2022-12-15T15:03:54;116.32;;;58.35;;
30818;SDS011;17546;42.674;23.284;2022-12-15T15:06:20;114.00;;;56.83;;
30818;SDS011;17546;42.674;23.284;2022-12-15T15:08:51;109.28;;;56.88;;
30818;SDS011;17546;42.674;23.284;2022-12-15T15:13:54;106.20;;;57.55;;
30818;SDS011;17546;42.674;23.284;2022-12-15T15:16:24;107.90;;;55.22;;
30818;SDS011;17546;42.674;23.284;2022-12-15T15:18:50;110.55;;;55.40;;
30818;SDS011;17546;42.674;23.284;2022-12-15T15:21:25;108.43;;;57.35;;
30818;SDS011;17546;42.674;23.284;2022-12-15T15:24:02;119.65;;;59.78;;
30818;SDS011;17546;42.674;23.284;2022-12-15T15:26:34;134.00;;;64.28;;
30818;SDS011;17546;42.674;23.284;2022-12-15T15:29:00;144.95;;;67.95;;
30818;SDS011;17546;42.674;23.284;2022-12-15T15:33:58;157.02;;;69.97;;
30818;SDS011;17546;42.674;23.284;2022-12-15T15:36:26;156.98;;;69.78;;
30818;SDS011;17546;42.674;23.284;2022-12-15T15:39:00;169.40;;;70.95;;
30818;SDS011;17546;42.674;23.284;2022-12-15T15:41:29;158.38;;;67.70;;
30818;SDS011;17546;42.674;23.284;2022-12-15T15:43:57;154.65;;;65.28;;
30818;SDS011;17546;42.674;23.284;2022-12-15T15:46:30;143.88;;;68.60;;
30818;SDS011;17546;42.674;23.284;2022-12-15T15:48:59;156.38;;;68.22;;
30818;SDS011;17546;42.674;23.284;2022-12-15T15:51:32;163.18;;;71.65;;
30818;SDS011;17546;42.674;23.284;2022-12-15T15:54:03;165.00;;;73.43;;
30818;SDS011;17546;42.674;23.284;2022-12-15T15:56:32;158.27;;;73.68;;
30818;SDS011;17546;42.674;23.284;2022-12-15T15:58:59;132.98;;;65.45;;
30818;SDS011;17546;42.674;23.284;2022-12-15T16:03:59;154.48;;;65.18;;
30818;SDS011;17546;42.674;23.284;2022-12-15T16:06:24;144.90;;;64.50;;
30818;SDS011;17546;42.674;23.284;2022-12-15T16:08:51;151.77;;;66.03;;
30818;SDS011;17546;42.674;23.284;2022-12-15T16:11:17;141.90;;;63.63;;
30818;SDS011;17546;42.674;23.284;2022-12-15T16:13:44;141.45;;;65.25;;
30818;SDS011;17546;42.674;23.284;2022-12-15T16:16:13;127.72;;;64.35;;
30818;SDS011;17546;42.674;23.284;2022-12-15T16:18:42;138.85;;;63.60;;
30818;SDS011;17546;42.674;23.284;2022-12-15T16:21:08;133.00;;;63.08;;
30818;SDS011;17546;42.674;23.284;2022-12-15T16:23:37;140.73;;;63.30;;
30818;SDS011;17546;42.674;23.284;2022-12-15T16:26:04;129.23;;;64.55;;
30818;SDS011;17546;42.674;23.284;2022-12-15T16:28:30;136.02;;;62.50;;
30818;SDS011;17546;42.674;23.284;2022-12-15T16:30:56;128.77;;;61.67;;
30818;SDS011;17546;42.674;23.284;2022-12-15T16:33:22;128.00;;;62.67;;
30818;SDS011;17546;42.674;23.284;2022-12-15T16:35:49;138.75;;;62.25;;
30818;SDS011;17546;42.674;23.284;2022-12-15T16:40:46;136.23;;;63.00;;
30818;SDS011;17546;42.674;23.284;2022-12-15T16:43:14;137.13;;;63.28;;
30818;SDS011;17546;42.674;23.284;2022-12-15T16:45:42;133.63;;;61.97;;